首页
METAR-TAF:

METAR-TAF

机场 :

喬治·布什洲際機場

休斯敦, 得克萨斯州, 美国

纬度: 29-59-33N, 经度: 095-21-50W, 海拔: 29米

当前天气观测

该预报发布于1小时和3分钟前的04:53 UTC
风速5节,风向东转东南
温度 16°C
湿度 55%
气压 1020 hPa
能見度: 16.1公里
天空无云

METAR: KIAH 230453Z 12005KT 10SM CLR 16/07 A3013 RMK AO2 SLP203 T01560072

时间: 00:56 (05:56 UTC)

预报

该预报发布于36分钟前的05:20 UTC
预报有效从23日的 06点(UTC)到 24日的 12点(UTC)
风速8节,风向
能見度: 10公里
天空无云
从 23日的 1600点(UTC)
风速11节,风向东南
能見度: 10公里
天空无云
从 24日的 0600点(UTC)
风速6节,风向东转东南
能見度: 10公里
少量云层高于5000英尺
少量云层高于25000英尺

TAF: KIAH 230520Z 2306/2412 10008KT P6SM SKC FM231600 13011KT P6SM SKC FM240600 11006KT P6SM FEW050 FEW250

超过4000个机场的气象观测和天气预报(METAR&TAF报告)。

可查询的气象台以黄色和红色小点在地图上表示。

将鼠标移到小点上方,可查看气象台名称。

然后点击查看天气观测和预报。

如需切换地图:点击带黑十字的绿色按钮放大地图;点击带横线的绿色按钮缩小地图;或者点击绿色箭头查看邻近地区的地图。


METAR-TAF: